Time;durP1;ratioP1;P1;durP2;ratioP2;P2;SDS_P1;SDS_P2;PMS_P1;PMS_P2;Temp;Humidity;BMP_temperature;BMP_pressure;BME280_temperature;BME280_humidity;BME280_pressure;Samples;Min_cycle;Max_cycle;Signal;HPM_P1;HPM_P2
2023/04/19 00:00:40;;;;;;;14.70;7.38;;;;;;;13.73;83.85;100190.88;5080099;28;20058;-81
2023/04/19 00:03:06;;;;;;;17.42;7.63;;;;;;;13.75;83.17;100191.59;5090581;28;20146;-81
2023/04/19 00:05:32;;;;;;;10.45;6.88;;;;;;;13.64;82.39;100187.25;5091055;28;20024;-81
2023/04/19 00:07:58;;;;;;;16.95;8.00;;;;;;;13.66;83.10;100203.31;5083644;28;20055;-79
2023/04/19 00:10:24;;;;;;;11.90;6.80;;;;;;;13.63;82.47;100184.72;5080931;28;20120;-81
2023/04/19 00:12:49;;;;;;;15.50;8.10;;;;;;;13.62;82.68;100185.72;5075695;28;20472;-82
2023/04/19 00:15:15;;;;;;;16.10;8.52;;;;;;;13.59;82.88;100183.31;5069392;28;20488;-82
2023/04/19 00:17:40;;;;;;;17.30;8.73;;;;;;;13.53;83.15;100186.66;5068950;28;20381;-83
2023/04/19 00:20:07;;;;;;;14.80;7.93;;;;;;;13.49;83.99;100179.84;5069440;28;20476;-83
2023/04/19 00:22:32;;;;;;;16.27;8.35;;;;;;;13.47;83.83;100185.41;5050957;28;20404;-81
2023/04/19 00:24:58;;;;;;;22.27;8.95;;;;;;;13.53;82.49;100175.84;5068571;28;20028;-81
2023/04/19 00:27:23;;;;;;;17.67;7.28;;;;;;;13.54;82.60;100174.84;5068210;28;20056;-81
2023/04/19 00:29:49;;;;;;;20.77;8.38;;;;;;;13.46;83.83;100167.50;5068461;28;20028;-81
2023/04/19 00:32:15;;;;;;;11.65;7.53;;;;;;;13.42;84.34;100173.38;5068511;28;20074;-82
2023/04/19 00:34:41;;;;;;;14.95;8.10;;;;;;;13.33;84.45;100171.59;5068588;28;20617;-82
2023/04/19 00:37:08;;;;;;;13.95;8.23;;;;;;;13.22;84.65;100178.06;5068482;28;20040;-82
2023/04/19 00:39:34;;;;;;;17.08;8.60;;;;;;;13.15;85.15;100171.56;5068259;28;20024;-82
2023/04/19 00:42:00;;;;;;;24.13;9.93;;;;;;;13.18;86.20;100186.63;5068117;28;20403;-81
2023/04/19 00:44:26;;;;;;;20.92;9.20;;;;;;;13.13;86.45;100188.91;5068150;28;20043;-81
2023/04/19 00:46:52;;;;;;;14.10;9.30;;;;;;;13.09;86.80;100181.13;5068451;28;20098;-81
2023/04/19 00:49:19;;;;;;;15.18;8.80;;;;;;;13.09;87.45;100183.81;5068469;28;20027;-82
2023/04/19 00:51:45;;;;;;;18.42;9.73;;;;;;;13.16;87.47;100175.13;5072369;28;20107;-82
2023/04/19 00:54:12;;;;;;;18.80;9.63;;;;;;;13.22;87.60;100186.16;5072570;28;20103;-81
2023/04/19 00:56:38;;;;;;;27.23;11.10;;;;;;;13.07;87.66;100180.41;5072950;28;20105;-82
2023/04/19 00:59:04;;;;;;;28.50;11.80;;;;;;;13.11;88.64;100190.94;5074339;28;20024;-83
2023/04/19 01:01:30;;;;;;;27.50;12.85;;;;;;;13.00;89.98;100182.00;5075735;28;20032;-86
2023/04/19 01:03:56;;;;;;;25.75;13.43;;;;;;;12.84;90.44;100180.97;5080025;28;20039;-89
2023/04/19 01:06:21;;;;;;;26.98;14.02;;;;;;;12.72;92.13;100174.91;5097514;28;20024;-86
2023/04/19 01:08:47;;;;;;;28.05;15.38;;;;;;;12.54;93.50;100152.41;5098269;28;20036;-86
2023/04/19 01:11:12;;;;;;;27.23;14.75;;;;;;;12.62;93.59;100168.72;5082261;28;20028;-90
2023/04/19 01:13:38;;;;;;;24.27;14.73;;;;;;;12.64;94.51;100169.41;5073096;28;20021;-87
2023/04/19 01:16:05;;;;;;;23.80;15.65;;;;;;;12.60;95.00;100165.31;5072469;28;20029;-88
2023/04/19 01:18:36;;;;;;;31.17;17.25;;;;;;;12.62;95.65;100160.63;5073110;28;20046;-88
2023/04/19 01:21:02;;;;;;;32.45;17.63;;;;;;;12.57;95.95;100166.47;5054942;28;20024;-87
2023/04/19 01:23:27;;;;;;;36.05;17.60;;;;;;;12.49;96.46;100160.09;5073003;28;20103;-87
2023/04/19 01:25:53;;;;;;;37.20;17.27;;;;;;;12.51;96.88;100167.06;5074918;28;20557;-86
2023/04/19 01:28:18;;;;;;;40.30;17.63;;;;;;;12.42;97.43;100156.28;5078610;28;20470;-87
2023/04/19 01:30:44;;;;;;;31.23;17.85;;;;;;;12.53;98.08;100169.63;5078159;28;20025;-87
2023/04/19 01:33:09;;;;;;;39.17;18.92;;;;;;;12.55;98.18;100167.59;5078014;28;20099;-87
2023/04/19 01:35:35;;;;;;;31.05;18.60;;;;;;;12.59;98.59;100162.78;5075501;28;20039;-87
2023/04/19 01:38:00;;;;;;;27.45;18.95;;;;;;;12.45;98.88;100151.47;5072175;28;20411;-86
2023/04/19 01:40:26;;;;;;;29.38;18.40;;;;;;;12.46;99.28;100160.41;5053337;28;20043;-86
2023/04/19 01:42:52;;;;;;;39.22;19.25;;;;;;;12.59;99.85;100144.75;5071548;28;20123;-85
2023/04/19 01:45:17;;;;;;;31.58;19.02;;;;;;;12.62;100.00;100155.22;5071660;28;20028;-87
2023/04/19 01:47:43;;;;;;;32.78;19.55;;;;;;;12.64;99.93;100144.28;5071608;28;20484;-87
2023/04/19 01:50:08;;;;;;;35.05;19.42;;;;;;;12.79;99.60;100157.13;5071081;28;20031;-86
2023/04/19 01:52:34;;;;;;;31.60;20.05;;;;;;;12.82;99.03;100154.13;5072003;28;20074;-87
2023/04/19 01:54:59;;;;;;;33.72;20.27;;;;;;;12.79;98.57;100132.84;5073214;28;20506;-86
2023/04/19 01:57:25;;;;;;;33.20;17.65;;;;;;;12.86;98.77;100155.53;5058299;28;20047;-85
2023/04/19 01:59:52;;;;;;;32.90;17.38;;;;;;;12.82;98.53;100148.72;5083777;28;20024;-85
2023/04/19 02:02:18;;;;;;;35.58;19.10;;;;;;;12.87;98.65;100159.91;5077438;28;20028;-85
2023/04/19 02:04:43;;;;;;;41.95;21.25;;;;;;;12.88;98.60;100161.63;5077803;28;20020;-85
2023/04/19 02:07:09;;;;;;;39.17;21.63;;;;;;;12.87;98.38;100165.31;5096707;28;20092;-85
2023/04/19 02:09:37;;;;;;;35.33;21.33;;;;;;;12.90;98.47;100162.31;5077582;28;20435;-85
2023/04/19 02:12:04;;;;;;;40.58;19.17;;;;;;;13.00;98.44;100162.25;5071748;28;20079;-85
2023/04/19 02:14:29;;;;;;;28.05;19.13;;;;;;;12.83;98.44;100154.97;5071679;28;20525;-86
2023/04/19 02:16:55;;;;;;;29.55;19.95;;;;;;;12.90;98.50;100151.50;5053172;28;20029;-85
2023/04/19 02:19:20;;;;;;;30.42;19.85;;;;;;;12.95;98.49;100149.22;5071474;28;20083;-85
2023/04/19 02:21:46;;;;;;;34.17;19.65;;;;;;;13.06;98.06;100146.28;5076157;28;20032;-84
2023/04/19 02:24:11;;;;;;;32.40;19.52;;;;;;;13.17;97.42;100147.97;5076359;28;20032;-84
2023/04/19 02:26:38;;;;;;;40.35;20.88;;;;;;;13.17;96.28;100136.31;5071291;28;20036;-86
2023/04/19 02:29:04;;;;;;;35.40;19.63;;;;;;;13.18;96.12;100132.63;5072313;28;20064;-84
2023/04/19 02:31:30;;;;;;;38.47;19.40;;;;;;;13.26;95.92;100133.56;5071326;28;20032;-85
2023/04/19 02:33:55;;;;;;;36.08;20.40;;;;;;;13.27;95.63;100137.09;5071405;28;20032;-85
2023/04/19 02:36:20;;;;;;;34.05;19.15;;;;;;;13.28;95.16;100144.19;5071190;28;20030;-85
2023/04/19 02:38:46;;;;;;;31.30;18.13;;;;;;;13.30;94.90;100136.81;5071323;28;20032;-84
2023/04/19 02:41:11;;;;;;;38.00;19.58;;;;;;;13.35;95.43;100134.47;5071125;28;20028;-85
2023/04/19 02:43:37;;;;;;;32.10;20.38;;;;;;;13.33;95.02;100137.31;5053312;28;20407;-86
2023/04/19 02:46:02;;;;;;;33.30;18.58;;;;;;;13.30;94.81;100142.19;5070814;28;20036;-85
2023/04/19 02:48:28;;;;;;;45.78;18.67;;;;;;;13.08;94.70;100111.09;5070244;28;20029;-85
2023/04/19 02:50:53;;;;;;;32.95;18.42;;;;;;;13.13;95.00;100135.78;5070854;28;20031;-85
2023/04/19 02:53:19;;;;;;;31.33;19.25;;;;;;;13.12;95.34;100119.75;5071109;28;20040;-85
2023/04/19 02:55:44;;;;;;;38.20;18.05;;;;;;;13.07;94.89;100120.16;5072519;28;20499;-85
2023/04/19 02:58:10;;;;;;;36.08;17.90;;;;;;;12.92;95.01;100133.31;5074058;28;20036;-85
2023/04/19 03:00:35;;;;;;;34.45;20.23;;;;;;;12.81;95.54;100124.59;5055803;28;20487;-84
2023/04/19 03:03:03;;;;;;;35.20;19.35;;;;;;;12.95;96.53;100135.72;5095491;28;20052;-84
2023/04/19 03:05:29;;;;;;;33.90;19.02;;;;;;;12.89;97.38;100128.25;5095529;28;20031;-84
2023/04/19 03:07:54;;;;;;;34.75;19.67;;;;;;;12.96;97.52;100139.28;5073972;28;20028;-85
2023/04/19 03:10:20;;;;;;;28.40;18.85;;;;;;;12.99;97.48;100129.03;5070426;28;20107;-85
2023/04/19 03:12:45;;;;;;;26.90;16.98;;;;;;;13.04;97.00;100142.91;5069868;28;20025;-85
2023/04/19 03:15:11;;;;;;;38.20;18.25;;;;;;;13.03;96.05;100135.81;5069152;28;20025;-84
2023/04/19 03:17:36;;;;;;;26.10;17.65;;;;;;;13.12;95.75;100134.06;5070881;28;20040;-87
2023/04/19 03:20:02;;;;;;;27.98;16.70;;;;;;;13.15;95.55;100130.25;5051942;28;20034;-86
2023/04/19 03:22:27;;;;;;;30.77;15.52;;;;;;;13.12;94.90;100131.38;5069586;28;20032;-84
2023/04/19 03:24:52;;;;;;;31.13;16.33;;;;;;;13.08;94.48;100132.69;5069600;28;20229;-84
2023/04/19 03:27:18;;;;;;;31.02;14.80;;;;;;;12.99;93.63;100133.56;5069674;28;20673;-84
2023/04/19 03:29:43;;;;;;;30.52;17.05;;;;;;;13.05;93.69;100136.53;5069430;28;20023;-85
2023/04/19 03:32:09;;;;;;;33.22;16.13;;;;;;;13.09;93.83;100124.44;5069485;28;20024;-85
2023/04/19 03:34:34;;;;;;;23.17;15.88;;;;;;;13.07;94.02;100115.59;5069332;28;20565;-84
2023/04/19 03:37:00;;;;;;;25.30;16.17;;;;;;;13.20;94.16;100130.63;5051274;28;20032;-85
2023/04/19 03:39:25;;;;;;;27.50;15.10;;;;;;;13.20;93.75;100136.00;5070222;28;20108;-86
2023/04/19 03:41:50;;;;;;;21.63;15.45;;;;;;;13.18;93.52;100136.16;5071166;28;20085;-84
2023/04/19 03:44:16;;;;;;;30.38;16.55;;;;;;;13.22;93.67;100134.00;5069822;28;20021;-82
2023/04/19 03:46:41;;;;;;;25.25;15.23;;;;;;;13.28;93.28;100127.97;5069976;28;20024;-83
2023/04/19 03:49:07;;;;;;;23.52;15.13;;;;;;;13.37;93.35;100127.06;5069924;28;20040;-83
2023/04/19 03:51:32;;;;;;;27.38;14.95;;;;;;;13.43;93.42;100135.38;5069832;28;20522;-83
2023/04/19 03:53:58;;;;;;;30.98;15.77;;;;;;;13.40;93.47;100130.28;5071907;28;20552;-81
2023/04/19 03:56:23;;;;;;;24.58;15.70;;;;;;;13.47;93.04;100144.03;5071458;28;20032;-83
2023/04/19 03:58:52;;;;;;;24.15;14.95;;;;;;;13.45;92.90;100136.09;5071511;28;20024;-85
2023/04/19 04:01:21;;;;;;;19.58;14.70;;;;;;;13.46;92.85;100143.19;5088067;28;20048;-84
2023/04/19 04:03:47;;;;;;;21.58;14.10;;;;;;;13.45;92.83;100130.69;5088056;28;20028;-83
2023/04/19 04:06:12;;;;;;;24.15;14.40;;;;;;;13.43;92.62;100132.69;5070774;28;20429;-85
2023/04/19 04:08:38;;;;;;;32.88;14.98;;;;;;;13.47;91.48;100133.22;5070165;28;20016;-84
2023/04/19 04:11:03;;;;;;;23.63;12.68;;;;;;;13.45;91.41;100129.84;5069950;28;20429;-83
2023/04/19 04:13:29;;;;;;;27.65;14.27;;;;;;;13.48;91.31;100129.53;5069991;28;20032;-84
2023/04/19 04:15:54;;;;;;;27.02;14.10;;;;;;;13.47;91.75;100131.38;5071045;28;20099;-84
2023/04/19 04:18:20;;;;;;;23.08;12.65;;;;;;;13.46;91.62;100123.41;5075488;28;20025;-81
2023/04/19 04:20:45;;;;;;;24.80;13.43;;;;;;;13.53;90.78;100141.56;5079449;28;20520;-83
2023/04/19 04:23:10;;;;;;;23.85;14.15;;;;;;;13.49;90.21;100132.06;5083933;28;20042;-83
2023/04/19 04:25:36;;;;;;;22.58;14.20;;;;;;;13.45;90.43;100129.84;5076217;28;20032;-82
2023/04/19 04:28:05;;;;;;;25.75;13.35;;;;;;;13.42;90.60;100136.38;5071592;28;20064;-82
2023/04/19 04:30:30;;;;;;;29.60;15.20;;;;;;;13.41;90.79;100139.25;5071996;28;20024;-82
2023/04/19 04:32:59;;;;;;;25.23;14.23;;;;;;;13.37;90.71;100127.91;5072148;28;20111;-83
2023/04/19 04:35:26;;;;;;;24.98;15.73;;;;;;;13.45;90.73;100136.09;5068334;28;20132;-83
2023/04/19 04:37:54;;;;;;;20.55;13.45;;;;;;;13.47;90.90;100127.84;5067763;28;20070;-83
2023/04/19 04:40:20;;;;;;;17.25;12.23;;;;;;;13.52;90.41;100144.41;5068047;28;20031;-84
2023/04/19 04:42:45;;;;;;;19.48;11.88;;;;;;;13.45;89.68;100146.91;5067613;28;20073;-82
2023/04/19 04:45:11;;;;;;;25.15;13.23;;;;;;;13.43;89.79;100142.63;5067897;28;20166;-83
2023/04/19 04:47:37;;;;;;;15.90;10.70;;;;;;;13.49;89.98;100144.72;5068538;28;20029;-85
2023/04/19 04:50:03;;;;;;;13.90;10.40;;;;;;;13.39;89.54;100135.88;5068943;28;20028;-80
2023/04/19 04:52:29;;;;;;;17.25;11.20;;;;;;;13.36;89.62;100134.31;5032988;28;21103;-84
2023/04/19 04:54:54;;;;;;;23.95;13.15;;;;;;;13.44;89.85;100141.66;5069679;28;20082;-85
2023/04/19 04:57:20;;;;;;;17.15;11.35;;;;;;;13.45;90.39;100146.06;5076610;28;20047;-82
2023/04/19 04:59:47;;;;;;;21.65;10.07;;;;;;;13.52;90.59;100147.97;5084646;28;20043;-82
2023/04/19 05:02:13;;;;;;;12.57;8.90;;;;;;;13.57;90.54;100150.22;5074631;28;20435;-80
2023/04/19 05:04:39;;;;;;;16.20;8.60;;;;;;;13.55;90.27;100141.41;5067724;28;20461;-79
2023/04/19 05:07:04;;;;;;;13.45;8.07;;;;;;;13.45;89.77;100141.50;5067523;28;20115;-82
2023/04/19 05:09:29;;;;;;;11.32;7.80;;;;;;;13.53;89.52;100146.13;5067185;28;20028;-81
2023/04/19 05:11:55;;;;;;;10.07;7.55;;;;;;;13.54;89.56;100153.22;5066038;28;20033;-80
2023/04/19 05:14:20;;;;;;;16.60;8.45;;;;;;;13.48;90.21;100140.34;5067012;28;20099;-82
2023/04/19 05:16:46;;;;;;;10.82;7.25;;;;;;;13.45;89.80;100146.06;5067451;28;20039;-80
2023/04/19 05:19:11;;;;;;;13.07;8.80;;;;;;;13.33;89.06;100147.28;5067523;28;20035;-82
2023/04/19 05:21:37;;;;;;;9.90;5.80;;;;;;;13.25;88.78;100144.50;5067848;28;20034;-81
2023/04/19 05:24:03;;;;;;;8.05;6.07;;;;;;;13.21;88.75;100143.94;5067077;28;20029;-84
2023/04/19 05:26:28;;;;;;;8.23;6.40;;;;;;;13.24;88.52;100142.81;5066843;28;20024;-81
2023/04/19 05:28:53;;;;;;;7.70;5.80;;;;;;;13.20;88.49;100141.41;5067668;28;20526;-82
2023/04/19 05:31:19;;;;;;;9.63;6.38;;;;;;;13.23;88.37;100146.50;5067031;28;20029;-82
2023/04/19 05:33:45;;;;;;;13.32;6.63;;;;;;;13.31;88.41;100157.38;5066446;28;20039;-84
2023/04/19 05:36:10;;;;;;;10.65;7.15;;;;;;;13.27;88.16;100153.31;5067053;28;20029;-83
2023/04/19 05:38:36;;;;;;;7.30;5.82;;;;;;;13.28;87.76;100149.59;5070759;28;20036;-81
2023/04/19 05:41:04;;;;;;;11.82;7.00;;;;;;;13.30;88.12;100164.63;5070628;28;20147;-83
2023/04/19 05:43:29;;;;;;;15.02;8.90;;;;;;;13.39;88.47;100161.00;5070954;28;20182;-83
2023/04/19 05:45:55;;;;;;;7.45;6.07;;;;;;;13.34;88.73;100162.47;5070695;28;20119;-81
2023/04/19 05:48:21;;;;;;;22.65;10.27;;;;;;;13.25;88.28;100158.84;5071251;28;20035;-82
2023/04/19 05:50:46;;;;;;;13.07;9.02;;;;;;;13.32;88.66;100156.38;5071130;28;20055;-84
2023/04/19 05:53:11;;;;;;;21.92;10.20;;;;;;;13.29;88.80;100151.28;5072046;28;20078;-81
2023/04/19 05:55:37;;;;;;;22.25;11.50;;;;;;;13.39;88.00;100157.47;5074473;28;20034;-84
2023/04/19 05:58:02;;;;;;;33.38;12.70;;;;;;;13.45;88.31;100164.97;5077289;28;20060;-84
2023/04/19 06:00:28;;;;;;;27.85;12.93;;;;;;;13.44;88.16;100157.84;5071388;28;20119;-87
2023/04/19 06:02:53;;;;;;;25.75;11.32;;;;;;;13.40;87.92;100151.06;5071526;28;20063;-87
2023/04/19 06:05:19;;;;;;;16.33;8.30;;;;;;;13.49;87.71;100161.78;5072391;28;20044;-88
2023/04/19 06:07:44;;;;;;;15.43;7.90;;;;;;;13.41;87.12;100147.34;5071294;28;20028;-84
2023/04/19 06:10:10;;;;;;;16.00;8.52;;;;;;;13.42;86.35;100146.38;5051848;28;20458;-88
2023/04/19 06:12:35;;;;;;;14.05;9.20;;;;;;;13.56;86.21;100167.41;5070366;28;20668;-83
2023/04/19 06:15:01;;;;;;;13.13;6.82;;;;;;;13.59;86.13;100162.56;5051969;28;20097;-84
2023/04/19 06:17:26;;;;;;;9.55;6.53;;;;;;;13.63;85.99;100168.50;5070096;28;20781;-83
2023/04/19 06:19:52;;;;;;;12.57;5.93;;;;;;;13.62;85.58;100158.69;5069782;28;20040;-82
2023/04/19 06:22:18;;;;;;;9.60;5.63;;;;;;;13.60;85.66;100166.13;5069893;28;20029;-83
2023/04/19 06:24:44;;;;;;;7.25;5.32;;;;;;;13.58;86.52;100170.81;5069646;28;20050;-83
2023/04/19 06:27:10;;;;;;;9.35;5.47;;;;;;;13.50;86.33;100170.75;5069455;28;20513;-84
2023/04/19 06:29:36;;;;;;;7.35;5.93;;;;;;;13.53;87.16;100170.44;5069406;28;20029;-84
2023/04/19 06:32:01;;;;;;;6.57;5.07;;;;;;;13.45;86.92;100167.66;5069412;28;20117;-83
2023/04/19 06:34:27;;;;;;;9.43;6.90;;;;;;;13.57;87.35;100179.94;5069496;28;20349;-86
2023/04/19 06:36:52;;;;;;;10.93;6.75;;;;;;;13.64;87.70;100181.00;5069746;28;20024;-82
2023/04/19 06:39:18;;;;;;;10.43;7.07;;;;;;;13.74;87.52;100184.47;5070043;28;20094;-82
2023/04/19 06:41:43;;;;;;;11.07;8.25;;;;;;;13.78;87.27;100180.47;5069478;28;20115;-82
2023/04/19 06:44:09;;;;;;;13.40;7.15;;;;;;;13.84;86.77;100187.09;5070217;28;20556;-84
2023/04/19 06:46:34;;;;;;;12.73;7.55;;;;;;;13.89;86.61;100191.03;5051605;28;20029;-84
2023/04/19 06:48:59;;;;;;;10.80;7.15;;;;;;;13.99;86.39;100189.09;5070024;28;20031;-84
2023/04/19 06:51:25;;;;;;;11.85;9.15;;;;;;;14.06;86.26;100189.31;5079791;28;20042;-84
2023/04/19 06:53:51;;;;;;;15.10;7.10;;;;;;;14.10;85.76;100177.16;5085770;28;20032;-82
2023/04/19 06:56:16;;;;;;;7.65;6.72;;;;;;;14.08;85.08;100190.84;5072025;28;20483;-82
2023/04/19 06:58:42;;;;;;;14.63;8.25;;;;;;;14.12;84.75;100194.09;5069621;28;20449;-84
2023/04/19 07:01:07;;;;;;;13.98;7.35;;;;;;;14.19;84.54;100190.56;5069247;28;20032;-83
2023/04/19 07:03:32;;;;;;;8.88;6.63;;;;;;;14.27;84.69;100202.47;5069245;28;20031;-84
2023/04/19 07:05:58;;;;;;;9.60;7.05;;;;;;;14.34;84.91;100188.16;5016868;28;20035;-84
2023/04/19 07:08:24;;;;;;;15.40;8.68;;;;;;;14.44;84.26;100188.91;5069187;28;20067;-84
2023/04/19 07:10:50;;;;;;;16.25;9.77;;;;;;;14.45;83.68;100196.03;5068343;28;20052;-84
2023/04/19 07:13:15;;;;;;;12.25;8.93;;;;;;;14.43;83.65;100191.78;5069112;28;20663;-83
2023/04/19 07:15:41;;;;;;;12.90;8.98;;;;;;;14.47;83.36;100193.13;5068738;28;20181;-84
2023/04/19 07:18:06;;;;;;;13.73;9.70;;;;;;;14.56;84.12;100197.59;5051210;28;20446;-82
2023/04/19 07:20:32;;;;;;;13.98;8.70;;;;;;;14.63;84.39;100201.34;5069284;28;20419;-84
2023/04/19 07:22:58;;;;;;;13.73;8.60;;;;;;;14.66;83.27;100199.19;5068590;28;20041;-84
2023/04/19 07:25:24;;;;;;;46.47;25.60;;;;;;;14.65;82.30;100207.44;5049300;28;20631;-83
2023/04/19 07:27:52;;;;;;;12.82;8.88;;;;;;;14.62;82.83;100205.06;5068463;28;20061;-83
2023/04/19 07:30:18;;;;;;;16.80;8.90;;;;;;;14.72;82.77;100213.94;5068291;28;20029;-84
2023/04/19 07:32:43;;;;;;;14.52;8.95;;;;;;;14.78;82.88;100207.88;5068583;28;20487;-84
2023/04/19 07:35:09;;;;;;;19.60;6.88;;;;;;;14.80;83.12;100207.72;5067763;28;20032;-82
2023/04/19 07:37:34;;;;;;;11.65;8.27;;;;;;;14.81;83.15;100206.69;5068685;28;20704;-84
2023/04/19 07:40:00;;;;;;;12.88;7.30;;;;;;;14.77;82.42;100206.16;5050332;28;20036;-84
2023/04/19 07:42:25;;;;;;;14.32;7.63;;;;;;;14.91;81.78;100229.94;5069269;28;20745;-82
2023/04/19 07:44:50;;;;;;;9.32;5.60;;;;;;;14.77;80.99;100222.41;5069793;28;20123;-85
2023/04/19 07:47:16;;;;;;;10.68;5.75;;;;;;;14.68;80.13;100220.66;5075105;28;20042;-84
2023/04/19 07:49:43;;;;;;;9.73;5.82;;;;;;;14.66;80.47;100212.72;5086608;28;20024;-84
2023/04/19 07:52:08;;;;;;;19.50;7.68;;;;;;;14.71;81.33;100213.06;5081019;28;20059;-82
2023/04/19 07:54:34;;;;;;;8.70;5.45;;;;;;;14.78;82.34;100226.81;5069379;28;20102;-84
2023/04/19 07:57:00;;;;;;;14.45;7.80;;;;;;;14.71;82.87;100213.06;5069412;28;20496;-84
2023/04/19 07:59:26;;;;;;;9.93;7.18;;;;;;;14.71;81.38;100228.47;5068781;28;20521;-83
2023/04/19 08:01:52;;;;;;;8.35;6.00;;;;;;;14.70;81.44;100215.94;5069625;28;20052;-84
2023/04/19 08:04:18;;;;;;;18.33;7.93;;;;;;;14.71;82.11;100231.16;5069318;28;20021;-82
2023/04/19 08:06:44;;;;;;;7.22;5.78;;;;;;;14.73;82.73;100226.47;5069365;28;20039;-82
2023/04/19 08:09:10;;;;;;;7.75;5.60;;;;;;;14.72;82.72;100230.16;5068920;28;20036;-84
2023/04/19 08:11:35;;;;;;;6.05;4.07;;;;;;;14.62;81.28;100229.41;5051287;28;20025;-83
2023/04/19 08:14:01;;;;;;;8.90;3.65;;;;;;;14.66;81.19;100231.66;5069431;28;20032;-85
2023/04/19 08:16:27;;;;;;;11.98;5.72;;;;;;;14.57;81.18;100237.19;5069267;28;20487;-83
2023/04/19 08:18:52;;;;;;;9.45;5.28;;;;;;;14.53;81.67;100224.97;5069356;28;20025;-83
2023/04/19 08:21:18;;;;;;;11.25;5.85;;;;;;;14.50;82.15;100225.28;5051337;28;20484;-83
2023/04/19 08:23:43;;;;;;;7.75;4.82;;;;;;;14.59;82.63;100244.13;5069182;28;20021;-83
2023/04/19 08:26:09;;;;;;;5.93;4.30;;;;;;;14.52;82.70;100224.16;5067600;28;20455;-84
2023/04/19 08:28:34;;;;;;;23.83;4.40;;;;;;;14.48;82.95;100233.59;5069447;28;20052;-84
2023/04/19 08:31:04;;;;;;;7.50;4.25;;;;;;;14.47;82.91;100241.84;5069677;28;20035;-84
2023/04/19 08:33:29;;;;;;;6.00;3.65;;;;;;;14.48;82.90;100232.72;5069809;28;20035;-85
2023/04/19 08:35:55;;;;;;;5.03;2.85;;;;;;;14.43;82.87;100229.66;5070416;28;20024;-83
2023/04/19 08:38:20;;;;;;;5.25;3.08;;;;;;;14.38;83.54;100231.97;5074380;28;20031;-84
2023/04/19 08:40:51;;;;;;;3.90;2.47;;;;;;;14.42;84.25;100241.47;5073228;28;20028;-81
2023/04/19 08:43:17;;;;;;;5.60;3.20;;;;;;;14.39;84.50;100233.69;5071341;28;20522;-83
2023/04/19 08:45:46;;;;;;;3.38;3.08;;;;;;;14.41;84.81;100231.66;5083332;28;20032;-81
2023/04/19 08:48:14;;;;;;;4.63;3.25;;;;;;;14.52;85.10;100244.94;5082229;28;20028;-83
2023/04/19 08:50:41;;;;;;;12.35;2.97;;;;;;;14.45;84.59;100233.06;5074680;28;20020;-80
2023/04/19 08:53:12;;;;;;;10.70;2.90;;;;;;;14.39;82.47;100234.53;5067517;28;20442;-83
2023/04/19 08:55:40;;;;;;;9.88;2.47;;;;;;;14.41;81.85;100234.38;5069552;28;20029;-84
2023/04/19 08:58:05;;;;;;;5.93;2.35;;;;;;;14.39;82.10;100239.09;5068669;28;20100;-82
2023/04/19 09:00:33;;;;;;;8.30;3.13;;;;;;;14.46;83.27;100245.59;5067801;28;20031;-82
2023/04/19 09:02:58;;;;;;;3.30;2.22;;;;;;;14.42;83.95;100227.97;5067286;28;20029;-83
2023/04/19 09:05:24;;;;;;;1.45;1.27;;;;;;;14.39;83.97;100239.09;5067660;28;20487;-84
2023/04/19 09:07:49;;;;;;;2.85;1.73;;;;;;;14.28;83.96;100231.22;5067909;28;20472;-86
2023/04/19 09:10:17;;;;;;;3.22;1.92;;;;;;;14.32;83.75;100251.50;5049395;28;20028;-86
2023/04/19 09:12:59;;;;;;;3.45;2.38;;;;;;;14.14;82.20;100236.19;5052703;28;20040;-85
2023/04/19 09:15:39;;;;;;;8.73;3.13;;;;;;;14.36;81.49;100251.09;5073194;28;20048;-84
2023/04/19 09:18:08;;;;;;;3.13;2.28;;;;;;;14.59;82.20;100241.44;5072592;28;20044;-85
2023/04/19 09:20:37;;;;;;;2.90;1.90;;;;;;;14.64;81.88;100227.44;5074376;28;20028;-86
2023/04/19 09:23:05;;;;;;;1.88;1.70;;;;;;;14.79;80.07;100235.78;5072646;28;20042;-83
2023/04/19 09:25:30;;;;;;;3.50;2.00;;;;;;;14.90;79.41;100228.22;5073685;28;20052;-84
2023/04/19 09:28:08;;;;;;;1.60;1.23;;;;;;;15.09;79.42;100249.66;5073019;28;20108;-84
2023/04/19 09:30:34;;;;;;;8.10;2.78;;;;;;;15.09;79.29;100233.41;5073340;28;20064;-84
2023/04/19 09:32:59;;;;;;;2.60;1.63;;;;;;;15.29;79.37;100241.25;5072219;28;20037;-87
2023/04/19 09:35:50;;;;;;;4.22;1.92;;;;;;;15.23;79.39;100229.19;5073637;28;20021;-87
2023/04/19 09:38:15;;;;;;;4.32;2.15;;;;;;;15.13;79.37;100234.78;5075002;28;20028;-86
2023/04/19 09:40:41;;;;;;;7.20;2.85;;;;;;;15.16;78.83;100239.88;5073249;28;20411;-85
2023/04/19 09:43:07;;;;;;;3.00;2.08;;;;;;;15.13;78.84;100228.50;5083856;28;20008;-84
2023/04/19 09:45:40;;;;;;;3.67;1.90;;;;;;;15.17;79.15;100244.25;5093259;28;20043;-82
2023/04/19 09:48:06;;;;;;;2.28;1.65;;;;;;;15.11;78.74;100241.34;5083039;28;20060;-85
2023/04/19 09:50:32;;;;;;;5.53;2.47;;;;;;;15.16;79.26;100241.72;5073031;28;20348;-88
2023/04/19 09:52:58;;;;;;;1.67;1.30;;;;;;;15.15;80.47;100249.00;5071388;28;20043;-85
2023/04/19 09:55:25;;;;;;;2.35;1.60;;;;;;;15.00;80.53;100250.63;5071807;28;20036;-83
2023/04/19 09:57:51;;;;;;;3.70;2.03;;;;;;;14.85;80.53;100241.41;5070976;28;20126;-86
2023/04/19 10:00:17;;;;;;;11.27;4.25;;;;;;;14.87;80.95;100243.94;5070386;28;20028;-81
2023/04/19 10:02:46;;;;;;;7.00;2.30;;;;;;;14.87;81.23;100247.50;5071082;28;20031;-86
2023/04/19 10:05:14;;;;;;;3.22;2.30;;;;;;;14.78;80.69;100247.63;5072314;28;20035;-84
2023/04/19 10:07:40;;;;;;;3.58;2.45;;;;;;;14.76;81.95;100247.78;5070314;28;20032;-82
2023/04/19 10:10:07;;;;;;;5.47;2.20;;;;;;;14.81;82.37;100247.28;5070405;28;20450;-85
2023/04/19 10:12:34;;;;;;;1.05;0.93;;;;;;;14.67;82.52;100243.34;5070461;28;20047;-86
2023/04/19 10:14:59;;;;;;;1.52;1.20;;;;;;;14.44;81.08;100234.03;5070295;28;20689;-81
2023/04/19 10:17:25;;;;;;;1.20;1.13;;;;;;;14.43;82.17;100232.38;5070459;28;20111;-84
2023/04/19 10:20:07;;;;;;;1.33;0.90;;;;;;;14.43;82.89;100235.06;5070333;28;20503;-84
2023/04/19 10:22:36;;;;;;;1.07;0.93;;;;;;;14.22;80.67;100243.50;5069744;28;20039;-83
2023/04/19 10:25:12;;;;;;;1.65;1.25;;;;;;;14.38;82.52;100237.38;5070182;28;20029;-84
2023/04/19 10:27:38;;;;;;;1.98;1.42;;;;;;;14.33;82.25;100239.72;5071993;28;20063;-85
2023/04/19 10:30:09;;;;;;;7.20;1.73;;;;;;;14.46;82.32;100243.69;5074024;28;20032;-89
2023/04/19 10:32:40;;;;;;;1.60;1.20;;;;;;;14.55;82.68;100240.06;5071340;28;20384;-86
2023/04/19 10:35:15;;;;;;;1.10;1.00;;;;;;;14.49;82.64;100237.16;5071726;28;20036;-83
2023/04/19 10:38:00;;;;;;;6.63;1.70;;;;;;;14.50;82.54;100231.56;5070887;28;20054;-82
2023/04/19 10:40:51;;;;;;;4.22;2.25;;;;;;;14.60;82.98;100242.28;5080960;28;20342;-83
2023/04/19 10:43:20;;;;;;;10.63;2.50;;;;;;;14.59;81.82;100241.44;5087256;28;20029;-86
2023/04/19 10:45:46;;;;;;;2.42;1.80;;;;;;;14.74;83.12;100244.38;5072362;28;20124;-83
2023/04/19 10:48:32;;;;;;;2.28;1.60;;;;;;;14.71;83.56;100247.41;5069972;28;20054;-84
2023/04/19 10:51:20;;;;;;;1.38;1.27;;;;;;;14.68;81.64;100245.03;5069470;28;20029;-83
2023/04/19 10:53:54;;;;;;;4.18;1.55;;;;;;;14.67;79.74;100251.47;5069490;28;20021;-84
2023/04/19 10:56:32;;;;;;;10.00;4.35;;;;;;;14.62;79.03;100242.97;5070505;28;20028;-86
2023/04/19 10:59:06;;;;;;;24.38;6.40;;;;;;;14.72;79.87;100243.69;5070135;28;20143;-86
2023/04/19 11:01:38;;;;;;;10.48;5.00;;;;;;;14.75;79.99;100240.69;5072666;28;20028;-88
2023/04/19 11:04:04;;;;;;;29.50;13.30;;;;;;;14.77;80.97;100237.81;5071517;28;20097;-86
2023/04/19 11:06:31;;;;;;;24.15;11.18;;;;;;;14.80;79.86;100232.91;5070895;28;20028;-80
2023/04/19 11:08:56;;;;;;;14.48;7.60;;;;;;;14.89;80.50;100241.94;5070257;28;20028;-88
2023/04/19 11:11:24;;;;;;;3.50;2.30;;;;;;;14.84;80.09;100237.00;5075402;28;20032;-87
2023/04/19 11:13:50;;;;;;;9.38;1.90;;;;;;;14.94;80.34;100239.59;5053272;28;20479;-87